Time;durP1;ratioP1;P1;durP2;ratioP2;P2;SDS_P1;SDS_P2;PMS_P1;PMS_P2;Temp;Humidity;BMP_temperature;BMP_pressure;BME280_temperature;BME280_humidity;BME280_pressure;Samples;Min_cycle;Max_cycle;Signal;HPM_P1;HPM_P2
2021/12/14 00:00:37;;;;;;;20.17;13.55;;;8.70;99.90;;;;;;4963188;28;20480;-63
2021/12/14 00:03:03;;;;;;;18.10;13.63;;;8.70;99.90;;;;;;4959736;28;20049;-63
2021/12/14 00:05:32;;;;;;;22.08;15.07;;;8.70;99.90;;;;;;4981359;28;20543;-63
2021/12/14 00:08:01;;;;;;;19.85;13.38;;;8.70;99.90;;;;;;4983349;28;20600;-64
2021/12/14 00:13:26;;;;;;;21.83;14.82;;;8.70;99.90;;;;;;4975836;28;20100;-63
2021/12/14 00:15:54;;;;;;;20.88;14.98;;;8.70;99.90;;;;;;4956359;28;20478;-63
2021/12/14 00:18:21;;;;;;;23.55;14.57;;;8.70;99.90;;;;;;4964332;28;20034;-63
2021/12/14 00:20:52;;;;;;;20.00;14.02;;;8.70;99.90;;;;;;4964607;28;20061;-63
2021/12/14 00:26:06;;;;;;;21.23;14.88;;;8.70;99.90;;;;;;4982411;28;20456;-62
2021/12/14 00:28:34;;;;;;;22.88;15.40;;;8.70;99.90;;;;;;4980518;28;20038;-62
2021/12/14 00:31:03;;;;;;;21.73;14.52;;;8.70;99.90;;;;;;4973864;28;20076;-62
2021/12/14 00:33:34;;;;;;;18.45;14.23;;;8.60;99.90;;;;;;4976976;28;20045;-62
2021/12/14 00:36:01;;;;;;;19.63;14.65;;;8.70;99.90;;;;;;4949447;28;20052;-63
2021/12/14 00:38:28;;;;;;;23.60;16.30;;;8.70;99.90;;;;;;4980255;28;20092;-63
2021/12/14 00:41:02;;;;;;;23.63;16.75;;;8.60;99.90;;;;;;4980954;28;20051;-63
2021/12/14 00:43:27;;;;;;;23.67;16.17;;;8.60;99.90;;;;;;4980066;28;20069;-63
2021/12/14 00:45:54;;;;;;;23.10;15.40;;;8.60;99.90;;;;;;4979608;28;20586;-63
2021/12/14 00:48:20;;;;;;;23.15;17.70;;;8.60;99.90;;;;;;4956571;28;20082;-62
2021/12/14 00:50:50;;;;;;;24.88;17.33;;;8.60;99.90;;;;;;4960864;28;20413;-63
2021/12/14 00:53:16;;;;;;;25.92;17.55;;;8.60;99.90;;;;;;4955315;28;20054;-63
2021/12/14 00:55:45;;;;;;;25.50;17.17;;;8.60;99.90;;;;;;4959900;28;20036;-62
2021/12/14 00:58:12;;;;;;;24.25;17.35;;;8.60;99.90;;;;;;4971400;28;20329;-63
2021/12/14 01:00:57;;;;;;;25.35;17.02;;;8.60;99.90;;;;;;4974501;28;20056;-63
2021/12/14 01:03:25;;;;;;;23.27;16.65;;;8.60;99.90;;;;;;4956200;28;20065;-63
2021/12/14 01:05:52;;;;;;;25.52;17.60;;;8.60;99.90;;;;;;4969483;28;20830;-63
2021/12/14 01:08:29;;;;;;;26.15;17.33;;;8.60;99.90;;;;;;4965095;28;20661;-63
2021/12/14 01:11:23;;;;;;;25.08;18.08;;;8.60;99.90;;;;;;4945594;28;20074;-63
2021/12/14 01:14:02;;;;;;;23.60;17.25;;;8.60;99.90;;;;;;4950310;28;20136;-62
2021/12/14 01:16:52;;;;;;;25.33;16.75;;;8.60;99.90;;;;;;4979740;28;20042;-63
2021/12/14 01:19:26;;;;;;;24.30;16.73;;;8.60;99.90;;;;;;4958559;28;20051;-63
2021/12/14 01:25:01;;;;;;;24.85;17.27;;;8.60;99.90;;;;;;4971986;28;20065;-63
2021/12/14 01:27:42;;;;;;;25.33;17.50;;;8.60;99.90;;;;;;4966076;28;20059;-62
2021/12/14 01:30:20;;;;;;;28.42;18.60;;;8.60;99.90;;;;;;4976331;28;20366;-63
2021/12/14 01:32:49;;;;;;;26.85;17.83;;;8.60;99.90;;;;;;4978174;28;20031;-62
2021/12/14 01:35:20;;;;;;;26.13;19.48;;;8.60;99.90;;;;;;4979874;28;20349;-63
2021/12/14 01:38:00;;;;;;;26.40;18.10;;;8.60;99.90;;;;;;4943291;28;20504;-62
2021/12/14 01:40:53;;;;;;;28.90;19.83;;;8.50;99.90;;;;;;4979512;28;20041;-63
2021/12/14 01:43:17;;;;;;;28.95;18.20;;;8.50;99.90;;;;;;4961468;28;20084;-63
2021/12/14 01:45:43;;;;;;;26.55;18.95;;;8.50;99.90;;;;;;4976351;28;20035;-62
2021/12/14 01:48:09;;;;;;;26.55;18.38;;;8.50;99.90;;;;;;4949820;28;20054;-62
2021/12/14 01:50:44;;;;;;;27.55;19.15;;;8.50;99.90;;;;;;4979438;28;20112;-62
2021/12/14 01:53:13;;;;;;;24.98;18.33;;;8.50;99.90;;;;;;4978242;28;20034;-62
2021/12/14 01:55:41;;;;;;;27.70;19.30;;;8.50;99.90;;;;;;4983382;28;20149;-62
2021/12/14 01:58:09;;;;;;;26.48;18.35;;;8.50;99.90;;;;;;4969364;28;20330;-62
2021/12/14 02:00:41;;;;;;;25.85;18.05;;;8.50;99.90;;;;;;4983073;28;20096;-62
2021/12/14 02:03:10;;;;;;;24.88;17.73;;;8.50;99.90;;;;;;4976440;28;21817;-63
2021/12/14 02:05:45;;;;;;;25.48;18.25;;;8.50;99.90;;;;;;4981206;28;20906;-63
2021/12/14 02:08:21;;;;;;;26.30;17.90;;;8.50;99.90;;;;;;4965158;28;20096;-62
2021/12/14 02:10:48;;;;;;;29.48;20.05;;;8.50;99.90;;;;;;4962387;28;20046;-62
2021/12/14 02:13:26;;;;;;;27.92;19.63;;;8.50;99.90;;;;;;4981352;28;20165;-63
2021/12/14 02:15:52;;;;;;;29.50;19.83;;;8.50;99.90;;;;;;4980529;28;20126;-63
2021/12/14 02:18:23;;;;;;;29.45;18.38;;;8.50;99.90;;;;;;4964630;28;20544;-63
2021/12/14 02:21:01;;;;;;;30.38;19.90;;;8.50;99.90;;;;;;4967634;28;20035;-63
2021/12/14 02:23:30;;;;;;;27.75;18.88;;;8.50;99.90;;;;;;4978522;28;20050;-63
2021/12/14 02:25:59;;;;;;;28.08;18.85;;;8.50;99.90;;;;;;4947149;28;20052;-63
2021/12/14 02:28:26;;;;;;;29.77;19.88;;;8.50;99.90;;;;;;4961474;28;20397;-63
2021/12/14 02:30:54;;;;;;;30.77;18.85;;;8.40;99.90;;;;;;4979949;28;20050;-63
2021/12/14 02:33:29;;;;;;;29.15;20.38;;;8.50;99.90;;;;;;4976070;28;20050;-64
2021/12/14 02:35:55;;;;;;;27.00;18.63;;;8.40;99.90;;;;;;4970078;28;20034;-63
2021/12/14 02:38:21;;;;;;;33.75;21.02;;;8.40;99.90;;;;;;4967001;28;20702;-63
2021/12/14 02:40:55;;;;;;;28.30;19.15;;;8.40;99.90;;;;;;4959741;28;20066;-63
2021/12/14 02:43:41;;;;;;;29.85;20.95;;;8.40;99.90;;;;;;4980970;28;20501;-63
2021/12/14 02:46:13;;;;;;;30.70;20.27;;;8.40;99.90;;;;;;4963586;28;20540;-63
2021/12/14 02:48:43;;;;;;;31.63;21.20;;;8.40;99.90;;;;;;4981319;28;20042;-64
2021/12/14 02:51:14;;;;;;;32.70;22.65;;;8.40;99.90;;;;;;4976433;28;20050;-63
2021/12/14 02:53:41;;;;;;;31.75;20.33;;;8.40;99.90;;;;;;4973858;28;20046;-63
2021/12/14 02:56:13;;;;;;;28.27;20.63;;;8.40;99.90;;;;;;4966170;28;20038;-63
2021/12/14 02:58:40;;;;;;;30.42;21.02;;;8.40;99.90;;;;;;4952545;28;20050;-62
2021/12/14 03:01:08;;;;;;;35.45;21.90;;;8.40;99.90;;;;;;4982770;28;20050;-62
2021/12/14 03:03:35;;;;;;;36.22;22.17;;;8.40;99.90;;;;;;4983297;28;20051;-63
2021/12/14 03:06:04;;;;;;;31.45;21.77;;;8.40;99.90;;;;;;4967484;28;20046;-63
2021/12/14 03:08:33;;;;;;;31.55;21.77;;;8.40;99.90;;;;;;4983605;28;20050;-62
2021/12/14 03:11:10;;;;;;;32.67;21.27;;;8.40;99.90;;;;;;4980705;28;20054;-63
2021/12/14 03:13:43;;;;;;;32.78;22.67;;;8.40;99.90;;;;;;4962435;28;20081;-63
2021/12/14 03:16:17;;;;;;;30.60;22.67;;;8.40;99.90;;;;;;5035096;22;20049;-62
2021/12/14 03:18:47;;;;;;;33.05;22.45;;;8.40;99.90;;;;;;5019501;28;20096;-63
2021/12/14 03:21:20;;;;;;;36.10;22.40;;;8.40;99.90;;;;;;4990173;28;20095;-64
2021/12/14 03:23:54;;;;;;;36.45;23.17;;;8.40;99.90;;;;;;5014039;28;20159;-64
2021/12/14 03:26:22;;;;;;;35.10;22.90;;;8.40;99.90;;;;;;5015938;28;20099;-64
2021/12/14 03:28:52;;;;;;;35.67;23.85;;;8.40;99.90;;;;;;5012307;28;20052;-64
2021/12/14 03:31:27;;;;;;;37.53;23.10;;;8.40;99.90;;;;;;5009139;28;20188;-64
2021/12/14 03:34:15;;;;;;;30.77;21.77;;;8.40;99.90;;;;;;5013273;28;20087;-64
2021/12/14 03:36:50;;;;;;;39.10;24.63;;;8.30;99.90;;;;;;5007291;28;20056;-63
2021/12/14 03:39:25;;;;;;;34.40;23.60;;;8.30;99.90;;;;;;5022831;28;20071;-63
2021/12/14 03:42:06;;;;;;;33.60;22.45;;;8.30;99.90;;;;;;5002717;28;20057;-65
2021/12/14 03:44:34;;;;;;;32.00;21.90;;;8.30;99.90;;;;;;4994238;28;20115;-63
2021/12/14 03:46:59;;;;;;;34.63;23.48;;;8.30;99.90;;;;;;5011116;28;20044;-65
2021/12/14 03:49:31;;;;;;;34.35;22.33;;;8.30;99.90;;;;;;5006924;28;20048;-64
2021/12/14 03:51:57;;;;;;;35.58;24.65;;;8.30;99.90;;;;;;5017387;28;20044;-64
2021/12/14 03:54:24;;;;;;;35.50;24.23;;;8.30;99.90;;;;;;4992643;28;20033;-63
2021/12/14 03:56:50;;;;;;;35.95;24.70;;;8.30;99.90;;;;;;5004121;28;20588;-64
2021/12/14 03:59:16;;;;;;;39.90;24.77;;;8.30;99.90;;;;;;4997811;28;20052;-64
2021/12/14 04:01:45;;;;;;;36.85;25.58;;;8.30;99.90;;;;;;4996057;28;20072;-64
2021/12/14 04:04:19;;;;;;;37.17;24.45;;;8.30;99.90;;;;;;4999059;28;20110;-64
2021/12/14 04:06:49;;;;;;;38.10;26.50;;;8.30;99.90;;;;;;4996878;28;20152;-64
2021/12/14 04:09:20;;;;;;;38.90;25.35;;;8.30;99.90;;;;;;4998490;28;20033;-64
2021/12/14 04:11:46;;;;;;;37.03;24.05;;;8.30;99.90;;;;;;5015017;28;20565;-64
2021/12/14 04:14:13;;;;;;;37.47;26.05;;;8.30;99.90;;;;;;5015331;28;20634;-64
2021/12/14 04:16:43;;;;;;;39.25;25.95;;;8.30;99.90;;;;;;5005811;28;20048;-63
2021/12/14 04:19:12;;;;;;;37.78;25.88;;;8.30;99.90;;;;;;5011501;28;20045;-64
2021/12/14 04:21:43;;;;;;;40.40;24.83;;;8.30;99.90;;;;;;5013699;28;20044;-64
2021/12/14 04:24:10;;;;;;;39.25;25.45;;;8.30;99.90;;;;;;4996816;28;20041;-64
2021/12/14 04:26:37;;;;;;;40.00;25.80;;;8.30;99.90;;;;;;5025461;28;20472;-63
2021/12/14 04:29:04;;;;;;;38.97;24.40;;;8.30;99.90;;;;;;5011126;28;20096;-64
2021/12/14 04:31:34;;;;;;;38.78;25.55;;;8.30;99.90;;;;;;5013998;28;20033;-63
2021/12/14 04:34:00;;;;;;;36.80;25.77;;;8.30;99.90;;;;;;5022783;28;20511;-63
2021/12/14 04:36:28;;;;;;;38.22;26.42;;;8.30;99.90;;;;;;5002139;28;20048;-63
2021/12/14 04:39:29;;;;;;;40.38;26.20;;;8.30;99.90;;;;;;5027680;28;20450;-63
2021/12/14 04:53:15;;;;;;;46.35;27.75;;;8.30;99.90;;;;;;4970066;28;20432;-64
2021/12/14 04:55:44;;;;;;;44.70;27.88;;;8.30;99.90;;;;;;4986402;28;20515;-64
2021/12/14 04:58:12;;;;;;;42.00;26.73;;;8.30;99.90;;;;;;5009809;28;20064;-64
2021/12/14 05:00:45;;;;;;;40.75;26.92;;;8.30;99.90;;;;;;5012661;28;20284;-64
2021/12/14 05:03:18;;;;;;;43.35;28.00;;;8.30;99.90;;;;;;4995427;28;20045;-64
2021/12/14 05:05:50;;;;;;;44.88;27.63;;;8.30;99.90;;;;;;5011784;28;20048;-63
2021/12/14 05:10:46;;;;;;;46.53;27.63;;;8.30;99.90;;;;;;5008350;28;20037;-63
2021/12/14 05:13:12;;;;;;;44.17;28.08;;;8.30;99.90;;;;;;5017391;22;20492;-58
2021/12/14 05:15:40;;;;;;;41.83;28.17;;;8.30;99.90;;;;;;4981183;28;20045;-57
2021/12/14 05:18:11;;;;;;;43.00;27.20;;;8.30;99.90;;;;;;4981494;28;20964;-58
2021/12/14 05:20:41;;;;;;;42.05;27.92;;;8.30;99.90;;;;;;4970956;28;20080;-56
2021/12/14 05:23:07;;;;;;;40.78;27.58;;;8.30;99.90;;;;;;4967191;28;20111;-57
2021/12/14 05:25:33;;;;;;;41.90;28.40;;;8.30;99.90;;;;;;4989726;28;20222;-57
2021/12/14 05:28:01;;;;;;;51.72;31.33;;;8.30;99.90;;;;;;4985306;28;20320;-56
2021/12/14 05:30:40;;;;;;;47.22;30.23;;;8.30;99.90;;;;;;4995333;28;20124;-57
2021/12/14 05:33:15;;;;;;;43.60;29.80;;;8.30;99.90;;;;;;5011270;28;20269;-55
2021/12/14 05:35:42;;;;;;;44.15;30.35;;;8.30;99.90;;;;;;4984039;28;20128;-56
2021/12/14 05:38:15;;;;;;;44.83;29.85;;;8.30;99.90;;;;;;4989723;28;20088;-57
2021/12/14 05:41:11;;;;;;;44.53;29.73;;;8.30;99.90;;;;;;5000254;28;20103;-57
2021/12/14 05:43:30;;;;;;;48.42;30.45;;;8.30;99.90;;;;;;4984687;28;20061;-55
2021/12/14 05:46:02;;;;;;;50.67;31.35;;;8.30;99.90;;;;;;4998765;28;20493;-55
2021/12/14 05:48:32;;;;;;;51.67;32.60;;;8.30;99.90;;;;;;4997538;28;20501;-58
2021/12/14 05:51:02;;;;;;;51.13;32.60;;;8.30;99.90;;;;;;4991793;28;20194;-55
2021/12/14 05:53:41;;;;;;;50.83;32.38;;;8.30;99.90;;;;;;4994123;28;20955;-57
2021/12/14 05:56:11;;;;;;;49.55;31.85;;;8.20;99.90;;;;;;4985664;28;20052;-56
2021/12/14 05:58:37;;;;;;;51.20;33.63;;;8.20;99.90;;;;;;4984517;28;20124;-57
2021/12/14 06:01:12;;;;;;;53.72;34.08;;;8.20;99.90;;;;;;4985424;28;20500;-57
2021/12/14 06:03:46;;;;;;;54.25;33.95;;;8.20;99.90;;;;;;4993573;28;20123;-57
2021/12/14 06:06:14;;;;;;;;;;;8.20;99.90;;;;;;4991312;28;20059;-57
2021/12/14 06:08:39;;;;;;;58.55;33.75;;;8.20;99.90;;;;;;4979098;28;19924;-58
2021/12/14 06:11:05;;;;;;;57.25;34.30;;;8.20;99.90;;;;;;4980937;28;20044;-55
2021/12/14 06:13:43;;;;;;;59.97;34.78;;;8.20;99.90;;;;;;4985171;28;20080;-55
2021/12/14 06:16:25;;;;;;;59.70;36.22;;;8.20;99.90;;;;;;4975691;28;20042;-56
2021/12/14 06:18:51;;;;;;;53.88;33.63;;;8.20;99.90;;;;;;4984309;28;20650;-57
2021/12/14 06:21:29;;;;;;;57.92;36.70;;;8.20;99.90;;;;;;4993040;28;20387;-56
2021/12/14 06:24:04;;;;;;;60.83;37.05;;;8.10;99.90;;;;;;4978111;28;20099;-56
2021/12/14 06:26:51;;;;;;;59.42;35.85;;;8.20;99.90;;;;;;4992959;28;20042;-55
2021/12/14 06:29:26;;;;;;;56.88;35.40;;;8.20;99.90;;;;;;4971874;28;20049;-55
2021/12/14 06:31:53;;;;;;;63.40;37.17;;;8.20;99.90;;;;;;4996242;28;20181;-54
2021/12/14 06:34:26;;;;;;;62.25;38.22;;;8.20;99.90;;;;;;5000437;28;20037;-55
2021/12/14 06:37:04;;;;;;;65.05;37.08;;;8.20;99.90;;;;;;4988804;28;20045;-56
2021/12/14 06:39:55;;;;;;;63.03;37.28;;;8.20;99.90;;;;;;4990707;28;20041;-57
2021/12/14 06:42:21;;;;;;;66.57;38.42;;;8.10;99.90;;;;;;4952580;28;20054;-55
2021/12/14 06:44:47;;;;;;;65.40;37.85;;;8.10;99.90;;;;;;4970761;28;20130;-54
2021/12/14 06:47:12;;;;;;;65.28;37.20;;;8.10;99.90;;;;;;4953907;28;20197;-56
2021/12/14 06:49:38;;;;;;;66.90;39.08;;;8.10;99.90;;;;;;4933780;28;20040;-57
2021/12/14 06:52:04;;;;;;;65.13;37.28;;;8.10;99.90;;;;;;4941174;28;20049;-56
2021/12/14 06:54:32;;;;;;;67.07;39.92;;;8.20;99.90;;;;;;4949477;28;20095;-55
2021/12/14 06:57:01;;;;;;;70.22;38.83;;;8.10;99.90;;;;;;4953225;28;20136;-55
2021/12/14 06:59:28;;;;;;;70.60;39.05;;;8.20;99.90;;;;;;4952122;28;20049;-56
2021/12/14 07:01:57;;;;;;;76.20;41.40;;;8.20;99.90;;;;;;4968329;28;20033;-57
2021/12/14 07:04:25;;;;;;;69.60;38.90;;;8.20;99.90;;;;;;5001513;28;20045;-56
2021/12/14 07:07:00;;;;;;;69.65;39.55;;;8.10;99.90;;;;;;4997873;28;20044;-56
2021/12/14 07:09:37;;;;;;;75.03;39.45;;;8.20;99.90;;;;;;5003208;28;20662;-57
2021/12/14 07:12:06;;;;;;;72.90;40.33;;;8.20;99.90;;;;;;4991860;28;20077;-56
2021/12/14 07:14:31;;;;;;;62.95;38.63;;;8.10;99.90;;;;;;4971292;28;20068;-57
2021/12/14 07:17:08;;;;;;;69.97;39.85;;;8.10;99.90;;;;;;4976366;28;20574;-58
2021/12/14 07:19:42;;;;;;;72.75;40.22;;;8.10;99.90;;;;;;4980261;28;20125;-57
2021/12/14 07:22:33;;;;;;;71.15;40.00;;;8.20;99.90;;;;;;5010485;28;20034;-57
2021/12/14 07:25:22;;;;;;;75.03;40.75;;;8.30;99.90;;;;;;4972812;28;20045;-57
2021/12/14 07:27:49;;;;;;;78.57;42.05;;;8.10;99.90;;;;;;4998949;28;20048;-57
2021/12/14 07:30:26;;;;;;;73.93;40.17;;;8.10;99.90;;;;;;4979080;28;20053;-57
2021/12/14 07:32:58;;;;;;;77.32;41.70;;;8.10;99.90;;;;;;4970319;28;20052;-57
2021/12/14 07:35:29;;;;;;;72.95;41.22;;;8.10;99.90;;;;;;4970429;28;20038;-58
2021/12/14 07:38:21;;;;;;;81.63;43.33;;;8.10;99.90;;;;;;4981117;28;20065;-58
2021/12/14 07:40:54;;;;;;;89.47;45.08;;;8.20;99.90;;;;;;5008450;28;20505;-57
2021/12/14 07:43:27;;;;;;;85.82;44.22;;;8.10;99.90;;;;;;4969631;28;20052;-58
2021/12/14 07:45:54;;;;;;;84.38;41.67;;;8.20;99.90;;;;;;4983879;28;20061;-56
2021/12/14 07:48:23;;;;;;;76.60;40.65;;;8.20;99.90;;;;;;4990916;28;20492;-58
2021/12/14 07:50:53;;;;;;;76.97;40.83;;;8.10;99.90;;;;;;4999858;28;20081;-56
2021/12/14 07:53:42;;;;;;;78.20;40.97;;;8.20;99.90;;;;;;4989373;28;20085;-56
2021/12/14 07:56:20;;;;;;;73.88;40.72;;;8.20;99.90;;;;;;4994038;28;22311;-58
2021/12/14 07:58:48;;;;;;;79.13;42.15;;;8.20;99.90;;;;;;4979779;28;20512;-57
2021/12/14 08:01:15;;;;;;;81.60;42.88;;;8.20;99.90;;;;;;4977633;28;20048;-56
2021/12/14 08:03:41;;;;;;;84.90;41.40;;;8.20;99.90;;;;;;4990104;28;20058;-57
2021/12/14 08:06:11;;;;;;;79.60;40.92;;;8.20;99.90;;;;;;4988659;28;20072;-56
2021/12/14 08:08:56;;;;;;;76.53;39.33;;;8.20;99.90;;;;;;5010204;28;20037;-57
2021/12/14 08:14:14;;;;;;;73.20;38.67;;;8.20;99.90;;;;;;4999161;28;20045;-57
2021/12/14 08:16:49;;;;;;;76.22;39.45;;;8.20;99.90;;;;;;4970807;28;21589;-57
2021/12/14 08:19:44;;;;;;;86.40;42.72;;;8.20;99.90;;;;;;4982670;28;20045;-56
2021/12/14 08:22:32;;;;;;;77.90;40.72;;;8.30;99.90;;;;;;4963461;28;20162;-56
2021/12/14 08:24:58;;;;;;;76.60;38.65;;;8.30;99.90;;;;;;4982483;28;20099;-58
2021/12/14 08:27:26;;;;;;;79.03;41.72;;;8.20;99.90;;;;;;4987283;28;20042;-56
2021/12/14 08:29:55;;;;;;;80.40;40.40;;;8.30;99.90;;;;;;4981760;28;20050;-57
2021/12/14 08:32:25;;;;;;;70.82;39.22;;;8.30;99.90;;;;;;4978733;28;20096;-56
2021/12/14 08:34:53;;;;;;;78.65;39.40;;;8.30;99.90;;;;;;4991295;28;20506;-55
2021/12/14 08:37:38;;;;;;;75.95;38.97;;;8.30;99.90;;;;;;4998494;28;20084;-56
2021/12/14 08:40:10;;;;;;;72.63;37.33;;;8.30;99.90;;;;;;4987800;28;20261;-58
2021/12/14 08:43:04;;;;;;;75.88;38.88;;;8.30;99.90;;;;;;4996915;28;20045;-57
2021/12/14 08:45:33;;;;;;;79.13;40.35;;;8.30;99.90;;;;;;4976087;28;20455;-57
2021/12/14 08:48:02;;;;;;;78.57;41.28;;;8.40;99.90;;;;;;4991923;28;20037;-56
2021/12/14 08:50:31;;;;;;;77.40;38.92;;;8.40;99.90;;;;;;4993623;28;20038;-55
2021/12/14 08:52:59;;;;;;;78.25;39.17;;;8.40;99.90;;;;;;4985067;28;20121;-57
2021/12/14 08:55:31;;;;;;;79.35;39.20;;;8.40;99.90;;;;;;4970434;28;20069;-56
2021/12/14 08:57:57;;;;;;;88.13;39.58;;;8.40;99.90;;;;;;4983669;28;20034;-56
2021/12/14 09:00:31;;;;;;;74.97;39.65;;;8.40;99.90;;;;;;4973051;28;20041;-57
2021/12/14 09:03:00;;;;;;;85.32;40.65;;;8.40;99.90;;;;;;4989515;28;20046;-57
2021/12/14 09:05:32;;;;;;;88.82;41.72;;;8.40;99.90;;;;;;4976530;28;20641;-57
2021/12/14 09:07:58;;;;;;;83.13;38.80;;;8.40;99.90;;;;;;4987197;28;20046;-57
2021/12/14 09:10:28;;;;;;;81.72;42.33;;;8.40;99.90;;;;;;4993397;28;20088;-57
2021/12/14 09:12:59;;;;;;;90.80;43.08;;;8.40;99.90;;;;;;4958228;28;21059;-55
2021/12/14 09:15:42;;;;;;;84.95;40.10;;;8.40;99.90;;;;;;4966255;28;20092;-57
2021/12/14 09:18:10;;;;;;;85.30;42.03;;;8.40;99.90;;;;;;4974871;28;20621;-57
2021/12/14 09:20:44;;;;;;;86.78;41.50;;;8.40;99.90;;;;;;4987042;28;20059;-55
2021/12/14 09:23:22;;;;;;;86.78;42.53;;;8.40;99.90;;;;;;4970461;28;20073;-57
2021/12/14 09:25:49;;;;;;;85.50;41.20;;;8.40;99.90;;;;;;4955445;28;20382;-56
2021/12/14 09:28:16;;;;;;;90.32;43.67;;;8.40;99.90;;;;;;4971032;28;20053;-57
2021/12/14 09:30:47;;;;;;;91.53;44.13;;;8.40;99.90;;;;;;4957443;28;20073;-55
2021/12/14 09:33:14;;;;;;;81.18;40.35;;;8.50;99.90;;;;;;4968577;28;20054;-57
2021/12/14 09:35:41;;;;;;;89.68;41.00;;;8.50;99.90;;;;;;4966264;28;20489;-57
2021/12/14 09:38:11;;;;;;;84.30;41.53;;;8.50;99.90;;;;;;4969998;28;20049;-56
2021/12/14 09:41:07;;;;;;;81.20;41.28;;;8.50;99.90;;;;;;4991560;28;20373;-57
2021/12/14 09:43:34;;;;;;;80.65;40.38;;;8.50;99.90;;;;;;4990000;28;20092;-55
2021/12/14 09:46:01;;;;;;;87.93;40.60;;;8.50;99.90;;;;;;4998481;28;20041;-56
2021/12/14 09:48:39;;;;;;;90.10;41.75;;;8.50;99.90;;;;;;4990846;28;20048;-55
2021/12/14 09:51:10;;;;;;;84.75;39.35;;;8.50;99.90;;;;;;4967372;28;20117;-56
2021/12/14 09:53:39;;;;;;;95.32;41.70;;;8.50;99.90;;;;;;4990514;28;20069;-56
2021/12/14 09:56:06;;;;;;;83.50;40.88;;;8.50;99.90;;;;;;4983871;28;20725;-57
2021/12/14 09:58:37;;;;;;;85.85;40.03;;;8.50;99.90;;;;;;4979810;28;20042;-58
2021/12/14 10:01:06;;;;;;;89.25;40.75;;;8.50;99.90;;;;;;4999221;28;20500;-55
2021/12/14 10:03:32;;;;;;;96.38;43.05;;;8.50;99.90;;;;;;4980990;28;20439;-57
2021/12/14 10:06:02;;;;;;;81.88;40.05;;;8.50;99.90;;;;;;4982674;28;20396;-57
2021/12/14 10:08:34;;;;;;;91.75;42.65;;;8.50;99.90;;;;;;4998930;28;20357;-56
2021/12/14 10:11:35;;;;;;;89.85;43.05;;;8.50;99.90;;;;;;4998112;28;20052;-57
2021/12/14 10:14:06;;;;;;;84.18;40.33;;;8.50;99.90;;;;;;4960886;28;20073;-57
2021/12/14 10:16:33;;;;;;;82.15;40.78;;;8.50;99.90;;;;;;4990053;28;20444;-54
2021/12/14 10:19:02;;;;;;;104.65;43.33;;;8.50;99.90;;;;;;5006678;28;20056;-56
2021/12/14 10:21:36;;;;;;;91.28;40.72;;;8.50;99.90;;;;;;4999295;28;20498;-58
2021/12/14 10:24:04;;;;;;;84.50;39.78;;;8.50;99.90;;;;;;4985899;28;20255;-56
2021/12/14 10:26:35;;;;;;;82.55;38.72;;;8.50;99.90;;;;;;4973001;28;20073;-56
2021/12/14 10:29:01;;;;;;;81.35;38.00;;;8.50;99.90;;;;;;4989911;28;20051;-57
2021/12/14 10:31:41;;;;;;;78.05;37.63;;;8.50;99.90;;;;;;4982066;28;20181;-55
2021/12/14 10:34:14;;;;;;;82.60;38.08;;;8.50;99.90;;;;;;4969592;28;20444;-58
2021/12/14 10:36:46;;;;;;;81.57;37.08;;;8.50;99.90;;;;;;4990260;28;20095;-57
2021/12/14 10:44:39;;;;;;;75.95;35.72;;;8.60;99.90;;;;;;4981876;28;20065;-57
2021/12/14 10:47:07;;;;;;;77.65;34.97;;;8.50;99.90;;;;;;5000436;28;21559;-56
2021/12/14 10:49:34;;;;;;;72.90;35.33;;;8.60;99.90;;;;;;4982838;28;20538;-57
2021/12/14 10:52:18;;;;;;;64.95;33.55;;;8.60;99.90;;;;;;4988078;28;20096;-57
2021/12/14 10:54:47;;;;;;;71.57;31.30;;;8.60;99.90;;;;;;4979667;28;20124;-58
2021/12/14 10:57:18;;;;;;;69.05;33.65;;;8.70;99.90;;;;;;4986161;28;20280;-56
2021/12/14 10:59:47;;;;;;;68.85;32.17;;;8.60;99.90;;;;;;4999157;28;20290;-57
2021/12/14 11:02:14;;;;;;;68.88;33.85;;;8.70;99.90;;;;;;4981608;28;20033;-56
2021/12/14 11:04:51;;;;;;;69.53;33.40;;;8.70;99.90;;;;;;4999597;28;20107;-57
2021/12/14 11:07:43;;;;;;;73.63;32.05;;;8.70;99.90;;;;;;4986283;28;20057;-57
2021/12/14 11:10:24;;;;;;;62.28;30.63;;;8.70;99.90;;;;;;4985664;28;20049;-57
2021/12/14 11:12:55;;;;;;;62.83;28.92;;;8.80;99.90;;;;;;5021281;22;20045;-64
2021/12/14 11:15:29;;;;;;;63.15;29.73;;;8.80;99.90;;;;;;5002951;28;20049;-63
2021/12/14 11:18:08;;;;;;;59.75;30.02;;;8.80;99.90;;;;;;4997822;28;20048;-63
2021/12/14 11:20:39;;;;;;;63.40;29.65;;;8.80;99.90;;;;;;5022204;28;20053;-62
2021/12/14 11:23:22;;;;;;;58.33;27.08;;;8.90;99.90;;;;;;5021727;28;20254;-62
2021/12/14 11:25:51;;;;;;;55.17;27.08;;;8.80;99.90;;;;;;4993597;28;20077;-63
2021/12/14 11:28:33;;;;;;;57.30;28.17;;;8.90;99.90;;;;;;5024582;28;20462;-64
2021/12/14 11:31:20;;;;;;;53.13;25.00;;;8.90;99.90;;;;;;5023997;28;20111;-63
2021/12/14 11:33:54;;;;;;;61.42;26.85;;;8.90;99.90;;;;;;5021697;28;20515;-65
2021/12/14 11:36:22;;;;;;;50.85;24.40;;;8.90;99.90;;;;;;5009622;28;20044;-64
2021/12/14 11:38:53;;;;;;;43.13;22.95;;;8.90;99.90;;;;;;5014578;28;20073;-63
2021/12/14 11:41:37;;;;;;;46.33;23.88;;;8.90;99.90;;;;;;5000031;28;21116;-64
2021/12/14 11:44:24;;;;;;;46.00;22.33;;;9.00;99.90;;;;;;5015025;28;20072;-65
2021/12/14 11:50:23;;;;;;;45.47;23.33;;;9.00;99.90;;;;;;5010438;28;20070;-63
2021/12/14 11:52:52;;;;;;;48.67;22.67;;;9.00;99.90;;;;;;5014534;28;20045;-64
2021/12/14 11:55:36;;;;;;;50.95;23.92;;;9.00;99.90;;;;;;5030263;28;20037;-64
2021/12/14 11:58:05;;;;;;;;;;;9.00;99.90;;;;;;5030753;28;20045;-63
2021/12/14 12:00:33;;;;;;;54.40;24.35;;;9.00;99.90;;;;;;4997845;28;19924;-63
2021/12/14 12:03:28;;;;;;;47.60;24.20;;;9.00;99.90;;;;;;4990297;28;20036;-63
2021/12/14 12:06:02;;;;;;;48.85;23.83;;;9.00;99.90;;;;;;4996056;28;20048;-64
2021/12/14 12:11:19;;;;;;;53.55;25.17;;;9.00;99.90;;;;;;5013754;28;20167;-62
2021/12/14 12:13:46;;;;;;;44.40;22.23;;;9.00;99.90;;;;;;5004947;28;20461;-63
2021/12/14 12:16:21;;;;;;;45.72;22.33;;;9.00;99.90;;;;;;4996655;28;20128;-65
2021/12/14 12:19:27;;;;;;;46.05;23.33;;;9.00;99.90;;;;;;5023985;28;20145;-65
2021/12/14 12:21:53;;;;;;;40.20;21.02;;;9.10;99.90;;;;;;4953316;28;20050;-64
2021/12/14 12:24:47;;;;;;;42.40;21.55;;;9.20;99.90;;;;;;4962528;28;20042;-64
2021/12/14 12:27:26;;;;;;;44.33;21.63;;;9.20;99.90;;;;;;5013916;28;20223;-65
2021/12/14 12:30:13;;;;;;;37.42;19.48;;;9.20;99.90;;;;;;5019972;28;20053;-65
2021/12/14 12:32:39;;;;;;;37.25;19.13;;;9.20;99.90;;;;;;5002685;28;20175;-65
2021/12/14 12:35:36;;;;;;;35.78;19.40;;;9.20;99.90;;;;;;4997344;28;20179;-64
2021/12/14 12:38:16;;;;;;;41.00;20.17;;;9.20;99.90;;;;;;4986729;28;20038;-64
2021/12/14 12:40:49;;;;;;;34.42;18.20;;;9.30;99.90;;;;;;5020138;28;20051;-63
2021/12/14 12:43:31;;;;;;;34.83;18.00;;;9.30;99.90;;;;;;5026287;28;20048;-62
2021/12/14 12:46:08;;;;;;;34.13;17.33;;;9.30;99.90;;;;;;5030077;28;20044;-63
2021/12/14 12:48:59;;;;;;;38.92;20.63;;;9.30;99.90;;;;;;5005755;28;20053;-64
2021/12/14 12:51:52;;;;;;;37.33;19.80;;;9.40;99.90;;;;;;5009406;28;20176;-63
2021/12/14 12:54:27;;;;;;;42.47;20.67;;;9.40;99.90;;;;;;5010671;28;20156;-62
2021/12/14 12:57:08;;;;;;;48.53;22.77;;;9.40;99.90;;;;;;5013307;28;20073;-62
2021/12/14 12:59:49;;;;;;;47.08;22.13;;;9.40;99.90;;;;;;5024380;28;20060;-63
2021/12/14 13:02:27;;;;;;;57.65;24.20;;;9.40;99.90;;;;;;5006082;28;20044;-63
2021/12/14 13:05:14;;;;;;;49.17;23.67;;;9.40;99.90;;;;;;5011116;28;20075;-62
2021/12/14 13:07:45;;;;;;;51.45;23.15;;;9.40;99.90;;;;;;5006280;28;20134;-61
2021/12/14 13:10:23;;;;;;;49.72;22.48;;;9.40;99.90;;;;;;5026395;28;20196;-64
2021/12/14 13:13:00;;;;;;;50.97;22.90;;;9.40;99.90;;;;;;5019811;28;20025;-62
2021/12/14 13:15:31;;;;;;;49.95;23.80;;;9.40;99.90;;;;;;5028901;28;20158;-61
2021/12/14 13:18:21;;;;;;;52.33;23.58;;;9.40;99.90;;;;;;4996108;28;20072;-62
2021/12/14 13:20:51;;;;;;;57.75;25.33;;;9.40;99.90;;;;;;5031399;28;20490;-62
2021/12/14 13:23:22;;;;;;;54.22;24.20;;;9.40;99.90;;;;;;5003230;28;20040;-63
2021/12/14 13:25:48;;;;;;;53.22;25.98;;;9.40;99.90;;;;;;5040075;28;20398;-63
2021/12/14 13:28:15;;;;;;;57.42;24.48;;;9.40;99.90;;;;;;5007218;28;20059;-63
2021/12/14 13:30:42;;;;;;;57.60;26.02;;;9.40;99.90;;;;;;5000018;28;20387;-64
2021/12/14 13:33:28;;;;;;;66.95;26.45;;;9.40;99.90;;;;;;5007837;28;20114;-66
2021/12/14 13:35:54;;;;;;;54.83;24.58;;;9.40;99.90;;;;;;5031230;28;20065;-62
2021/12/14 13:38:20;;;;;;;49.03;23.77;;;9.40;99.90;;;;;;5031866;28;20069;-62
2021/12/14 13:40:47;;;;;;;53.00;23.85;;;9.40;99.90;;;;;;4988395;28;20057;-63
2021/12/14 13:43:20;;;;;;;40.40;21.98;;;9.40;99.90;;;;;;5003379;28;20515;-63